Time;durP1;ratioP1;P1;durP2;ratioP2;P2;SDS_P1;SDS_P2;PMS_P1;PMS_P2;Temp;Humidity;BMP_temperature;BMP_pressure;BME280_temperature;BME280_humidity;BME280_pressure;Samples;Min_cycle;Max_cycle;Signal;HPM_P1;HPM_P2
2024/02/13 00:02:44;;;;;;;;;;;;;;;6.77;71.58;97679.31;5063252;28;20027;-92
2024/02/13 00:05:33;;;;;;;;;;;;;;;6.86;71.35;97686.72;5079199;28;19928;-92
2024/02/13 00:08:22;;;;;;;;;;;;;;;6.83;71.60;97697.03;5069342;28;20630;-92
2024/02/13 00:11:20;;;;;;;;;;;;;;;6.85;71.09;97693.22;5089255;28;19924;-93
2024/02/13 00:14:08;;;;;;;;;;;;;;;6.60;71.87;97705.19;5081181;28;19960;-93
2024/02/13 00:16:58;;;;;;;;;;;;;;;6.64;71.51;97709.72;5068383;28;19924;-92
2024/02/13 00:19:46;;;;;;;;;;;;;;;6.71;71.49;97704.78;5080577;28;19931;-93
2024/02/13 00:22:35;;;;;;;;;;;;;;;6.66;71.43;97714.81;5072687;28;19924;-93
2024/02/13 00:25:28;;;;;;;;;;;;;;;6.56;71.74;97716.56;5070913;28;19932;-93
2024/02/13 00:28:17;;;;;;;;;;;;;;;6.63;71.81;97723.50;5076449;28;19929;-94
2024/02/13 00:31:05;;;;;;;;;;;;;;;6.67;71.36;97724.53;5073378;28;20025;-94
2024/02/13 00:33:54;;;;;;;;;;;;;;;6.55;71.50;97733.84;5086422;28;19924;-92
2024/02/13 00:36:47;;;;;;;;;;;;;;;6.63;71.41;97739.69;5070384;28;19924;-94
2024/02/13 00:39:35;;;;;;;;;;;;;;;6.62;71.70;97728.09;5069565;28;19971;-93
2024/02/13 00:42:26;;;;;;;;;;;;;;;6.51;71.93;97735.53;5067139;28;19925;-93
2024/02/13 00:45:14;;;;;;;;;;;;;;;6.54;71.91;97737.63;5065960;28;19935;-90
2024/02/13 00:48:03;;;;;;;;;;;;;;;6.51;71.61;97749.03;5079371;28;20029;-92
2024/02/13 00:50:52;;;;;;;;;;;;;;;6.48;71.84;97756.88;5078945;28;19935;-92
2024/02/13 00:53:40;;;;;;;;;;;;;;;6.48;71.88;97759.56;5081565;28;20399;-92
2024/02/13 00:56:29;;;;;;;;;;;;;;;6.52;71.79;97766.81;5081238;28;20058;-92
2024/02/13 00:59:19;;;;;;;;;;;;;;;6.55;71.54;97770.81;5080960;28;19974;-93
2024/02/13 01:02:07;;;;;;;;;;;;;;;6.42;72.08;97785.81;5066218;28;19929;-92
2024/02/13 01:04:55;;;;;;;;;;;;;;;6.46;71.71;97783.34;5054998;28;19925;-92
2024/02/13 01:07:44;;;;;;;;;;;;;;;6.45;71.86;97784.47;5080366;28;19940;-92
2024/02/13 01:10:32;;;;;;;;;;;;;;;6.47;72.02;97787.66;5078118;28;19930;-87
2024/02/13 01:13:20;;;;;;;;;;;;;;;6.52;71.86;97798.41;5063882;28;19924;-88
2024/02/13 01:16:14;;;;;;;;;;;;;;;6.43;72.39;97789.31;5063761;28;20435;-87
2024/02/13 01:19:03;;;;;;;;;;;;;;;6.51;72.04;97794.09;5073167;28;19925;-81
2024/02/13 01:21:51;;;;;;;;;;;;;;;6.50;71.68;97806.00;5090162;28;20285;-84
2024/02/13 01:24:40;;;;;;;;;;;;;;;6.50;71.39;97806.78;5084803;28;19928;-88
2024/02/13 01:27:28;;;;;;;;;;;;;;;6.43;72.23;97806.31;5073571;28;19929;-88
2024/02/13 01:30:18;;;;;;;;;;;;;;;6.50;72.03;97824.88;5075737;28;20325;-88
2024/02/13 01:33:08;;;;;;;;;;;;;;;6.48;71.98;97821.66;5070010;28;20399;-88
2024/02/13 01:35:56;;;;;;;;;;;;;;;6.51;71.85;97823.78;5078151;28;19929;-88
2024/02/13 01:38:44;;;;;;;;;;;;;;;6.54;72.09;97817.78;5053081;28;19925;-87
2024/02/13 01:41:32;;;;;;;;;;;;;;;6.45;72.10;97824.94;5066705;28;19929;-88
2024/02/13 01:44:21;;;;;;;;;;;;;;;6.46;71.91;97831.94;5065999;28;19938;-89
2024/02/13 01:47:11;;;;;;;;;;;;;;;6.42;72.13;97833.59;5065333;28;19995;-89
2024/02/13 01:50:00;;;;;;;;;;;;;;;6.42;72.11;97842.50;5086912;28;19933;-88
2024/02/13 01:52:49;;;;;;;;;;;;;;;6.42;72.25;97850.59;5073000;28;20366;-88
2024/02/13 01:55:38;;;;;;;;;;;;;;;6.46;72.31;97848.13;5073564;28;19982;-90
2024/02/13 01:58:26;;;;;;;;;;;;;;;6.53;72.19;97857.47;5068003;28;19931;-89
2024/02/13 02:01:14;;;;;;;;;;;;;;;6.57;71.74;97861.22;5066123;28;20436;-88
2024/02/13 02:04:03;;;;;;;;;;;;;;;6.59;71.86;97862.81;5080150;28;19925;-89
2024/02/13 02:06:53;;;;;;;;;;;;;;;6.55;71.85;97867.97;5070793;28;19960;-89
2024/02/13 02:09:42;;;;;;;;;;;;;;;6.51;71.86;97870.47;5065840;28;19925;-89
2024/02/13 02:12:30;;;;;;;;;;;;;;;6.46;72.09;97867.03;5068730;28;19924;-89
2024/02/13 02:15:18;;;;;;;;;;;;;;;6.50;72.59;97870.75;5067487;28;19951;-89
2024/02/13 02:18:07;;;;;;;;;;;;;;;6.52;72.00;97873.97;5059644;28;20308;-89
2024/02/13 02:20:56;;;;;;;;;;;;;;;6.48;72.06;97878.31;5060284;28;20014;-77
2024/02/13 02:23:46;;;;;;;;;;;;;;;6.34;72.47;97880.91;5058604;28;19925;-75
2024/02/13 02:26:35;;;;;;;;;;;;;;;6.40;72.28;97887.84;5075588;28;19925;-76
2024/02/13 02:29:25;;;;;;;;;;;;;;;6.45;72.47;97897.78;5065200;28;19932;-75
2024/02/13 02:32:13;;;;;;;;;;;;;;;6.42;72.73;97890.25;5066333;28;19935;-76
2024/02/13 02:35:01;;;;;;;;;;;;;;;6.42;72.45;97903.75;5065245;28;19986;-76
2024/02/13 02:37:50;;;;;;;;;;;;;;;6.38;73.00;97902.69;5079021;28;20051;-75
2024/02/13 02:40:39;;;;;;;;;;;;;;;6.35;73.10;97903.28;5057474;28;19932;-76
2024/02/13 02:43:29;;;;;;;;;;;;;;;6.34;72.70;97909.75;5072375;28;19924;-76
2024/02/13 02:46:17;;;;;;;;;;;;;;;6.35;72.43;97912.19;5057316;28;19986;-75
2024/02/13 02:49:05;;;;;;;;;;;;;;;6.33;72.37;97918.94;5074006;28;19925;-75
2024/02/13 02:51:53;;;;;;;;;;;;;;;6.29;72.89;97922.22;5078673;28;19932;-75
2024/02/13 02:54:42;;;;;;;;;;;;;;;6.29;73.08;97922.22;5078011;28;19932;-76
2024/02/13 02:57:30;;;;;;;;;;;;;;;6.18;72.72;97923.41;5084436;28;19963;-76
2024/02/13 03:00:20;;;;;;;;;;;;;;;6.22;72.92;97929.00;5059554;28;20376;-75
2024/02/13 03:03:08;;;;;;;;;;;;;;;6.16;72.92;97925.53;5069596;28;19929;-75
2024/02/13 03:05:57;;;;;;;;;;;;;;;6.15;73.01;97936.63;5062774;28;20291;-75
2024/02/13 03:08:45;;;;;;;;;;;;;;;6.11;73.15;97939.06;5077510;28;19932;-75
2024/02/13 03:11:34;;;;;;;;;;;;;;;6.10;73.22;97942.88;5064606;28;19928;-76
2024/02/13 03:14:22;;;;;;;;;;;;;;;6.03;73.21;97951.28;5083954;28;20078;-75
2024/02/13 03:17:12;;;;;;;;;;;;;;;5.98;73.47;97958.59;5067040;28;20028;-76
2024/02/13 03:20:03;;;;;;;;;;;;;;;6.02;73.74;97956.97;5066925;28;19925;-75
2024/02/13 03:22:51;;;;;;;;;;;;;;;5.99;73.38;97962.91;5076270;28;20451;-75
2024/02/13 03:25:39;;;;;;;;;;;;;;;5.93;73.51;97956.75;5074751;28;20422;-75
2024/02/13 03:28:29;;;;;;;;;;;;;;;5.90;73.81;97967.25;5062916;28;19935;-76
2024/02/13 03:31:18;;;;;;;;;;;;;;;5.89;74.04;97968.31;5052512;28;19954;-75
2024/02/13 03:34:08;;;;;;;;;;;;;;;5.85;74.10;97978.06;5071046;28;20376;-76
2024/02/13 03:36:56;;;;;;;;;;;;;;;5.80;73.99;97981.56;5063728;28;19928;-75
2024/02/13 03:39:44;;;;;;;;;;;;;;;5.81;73.94;97977.81;5064800;28;19954;-79
2024/02/13 03:42:32;;;;;;;;;;;;;;;5.75;74.42;97993.22;5068696;28;19925;-76
2024/02/13 03:45:20;;;;;;;;;;;;;;;5.80;74.01;97992.38;5061829;28;19925;-76
2024/02/13 03:48:08;;;;;;;;;;;;;;;5.81;74.08;97990.50;5068062;28;19932;-76
2024/02/13 03:50:58;;;;;;;;;;;;;;;5.84;73.62;97998.81;5066821;28;20400;-76
2024/02/13 03:53:46;;;;;;;;;;;;;;;5.79;73.91;98005.03;5062125;28;19935;-76
2024/02/13 03:56:34;;;;;;;;;;;;;;;5.81;73.72;97999.38;5064893;28;19931;-76
2024/02/13 03:59:23;;;;;;;;;;;;;;;5.89;73.42;98006.06;5059085;28;20402;-75
2024/02/13 04:02:11;;;;;;;;;;;;;;;5.86;73.63;98012.00;5067070;28;19933;-76
2024/02/13 04:04:59;;;;;;;;;;;;;;;5.79;73.50;98013.13;5055049;28;19925;-76
2024/02/13 04:07:49;;;;;;;;;;;;;;;5.72;73.60;98019.91;5059326;28;19939;-76
2024/02/13 04:10:37;;;;;;;;;;;;;;;5.60;74.38;98009.47;5062919;28;20034;-76
2024/02/13 04:13:25;;;;;;;;;;;;;;;5.59;74.08;98020.50;5061679;28;19924;-76
2024/02/13 04:16:15;;;;;;;;;;;;;;;5.57;74.25;98028.06;5066616;28;20471;-75
2024/02/13 04:19:03;;;;;;;;;;;;;;;5.60;74.28;98031.03;5075019;28;20023;-76
2024/02/13 04:21:52;;;;;;;;;;;;;;;5.56;74.63;98029.16;5080774;28;19924;-75
2024/02/13 04:24:41;;;;;;;;;;;;;;;5.56;74.57;98038.03;5063831;28;19925;-75
2024/02/13 04:27:29;;;;;;;;;;;;;;;5.58;74.31;98038.56;5054383;28;20300;-76
2024/02/13 04:30:18;;;;;;;;;;;;;;;5.56;74.78;98032.66;5056516;28;20039;-74
2024/02/13 04:33:08;;;;;;;;;;;;;;;5.44;75.13;98049.13;5058289;28;19925;-75
2024/02/13 04:35:57;;;;;;;;;;;;;;;5.38;74.90;98038.63;5066156;28;19936;-76
2024/02/13 04:38:45;;;;;;;;;;;;;;;5.37;75.19;98045.09;5057990;28;20284;-75
2024/02/13 04:41:34;;;;;;;;;;;;;;;5.33;75.46;98052.94;5062548;28;19928;-75
2024/02/13 04:44:22;;;;;;;;;;;;;;;5.33;75.47;98054.84;5080894;28;19932;-76
2024/02/13 04:47:14;;;;;;;;;;;;;;;5.40;74.99;98055.34;5065952;28;19924;-76
2024/02/13 04:50:05;;;;;;;;;;;;;;;5.39;74.98;98054.53;5066443;28;19924;-77
2024/02/13 04:52:55;;;;;;;;;;;;;;;5.38;74.91;98057.47;5062770;28;19932;-77
2024/02/13 04:55:44;;;;;;;;;;;;;;;5.37;75.14;98053.19;5072787;28;19932;-76
2024/02/13 04:58:36;;;;;;;;;;;;;;;5.37;75.02;98061.25;5060471;28;19972;-75
2024/02/13 05:01:25;;;;;;;;;;;;;;;5.35;74.94;98055.34;5060061;28;19932;-76
2024/02/13 05:07:20;;;;;;;;;;;;;;;5.23;75.31;98056.47;5061752;28;19924;-75
2024/02/13 05:10:09;;;;;;;;;;;;;;;5.34;75.00;98059.94;5080417;28;20376;-76
2024/02/13 05:12:57;;;;;;;;;;;;;;;5.39;75.07;98067.22;5081782;28;19924;-75
2024/02/13 05:15:47;;;;;;;;;;;;;;;5.44;74.77;98061.81;5067311;28;20058;-76
2024/02/13 05:18:35;;;;;;;;;;;;;;;5.52;74.12;98069.31;5063928;28;19924;-75
2024/02/13 05:21:24;;;;;;;;;;;;;;;5.55;74.39;98065.28;5077892;28;19947;-75
2024/02/13 05:24:12;;;;;;;;;;;;;;;5.56;74.17;98073.06;5065725;28;25320;-76
2024/02/13 05:27:00;;;;;;;;;;;;;;;5.62;74.01;98077.38;5058353;28;20394;-76
2024/02/13 05:29:50;;;;;;;;;;;;;;;5.62;73.65;98076.56;5068468;28;20403;-75
2024/02/13 05:32:40;;;;;;;;;;;;;;;5.68;73.10;98075.44;5076727;28;20380;-76
2024/02/13 05:35:29;;;;;;;;;;;;;;;5.42;74.10;98075.53;5067924;28;19929;-75
2024/02/13 05:38:17;;;;;;;;;;;;;;;5.72;73.32;98082.72;5062720;28;20015;-76
2024/02/13 05:41:05;;;;;;;;;;;;;;;5.89;72.20;98086.97;5067092;28;19924;-76
2024/02/13 05:43:53;;;;;;;;;;;;;;;5.76;72.60;98096.47;5066233;28;19925;-76
2024/02/13 05:46:42;;;;;;;;;;;;;;;5.75;72.81;98095.66;5077765;28;20641;-76
2024/02/13 05:49:31;;;;;;;;;;;;;;;5.71;73.08;98099.19;5069161;28;20284;-86
2024/02/13 05:52:21;;;;;;;;;;;;;;;5.56;73.23;98102.72;5079743;28;20384;-89
2024/02/13 05:55:10;;;;;;;;;;;;;;;5.68;73.39;98102.41;5068917;28;19932;-87
2024/02/13 05:58:00;;;;;;;;;;;;;;;5.41;74.15;98110.84;5068220;28;19960;-88
2024/02/13 06:00:48;;;;;;;;;;;;;;;5.49;73.57;98104.91;5065011;28;19924;-90
2024/02/13 06:03:37;;;;;;;;;;;;;;;5.54;73.45;98112.97;5080988;28;19924;-87
2024/02/13 06:06:26;;;;;;;;;;;;;;;5.58;73.56;98119.41;5070872;28;19933;-83
2024/02/13 06:09:20;;;;;;;;;;;;;;;5.60;73.01;98117.28;5087943;28;19978;-87
2024/02/13 06:12:09;;;;;;;;;;;;;;;5.58;73.37;98124.81;5070612;28;19924;-79
2024/02/13 06:14:57;;;;;;;;;;;;;;;5.37;74.12;98129.41;5075470;28;19925;-91
2024/02/13 06:17:45;;;;;;;;;;;;;;;5.46;73.56;98129.69;5070055;28;19936;-92
2024/02/13 06:20:33;;;;;;;;;;;;;;;5.41;74.02;98130.50;5084009;28;20346;-83
2024/02/13 06:23:23;;;;;;;;;;;;;;;5.45;74.08;98141.56;5079291;28;19928;-92
2024/02/13 06:26:14;;;;;;;;;;;;;;;5.64;73.65;98139.06;5067633;28;19936;-93
2024/02/13 06:29:02;;;;;;;;;;;;;;;5.58;73.47;98146.38;5103967;28;19984;-92
2024/02/13 06:31:54;;;;;;;;;;;;;;;5.70;73.11;98152.28;5073568;28;20554;-92
2024/02/13 06:34:44;;;;;;;;;;;;;;;5.67;72.76;98152.00;5074075;28;19924;-91
2024/02/13 06:37:32;;;;;;;;;;;;;;;5.59;73.56;98164.13;5076783;28;20078;-91
2024/02/13 06:40:23;;;;;;;;;;;;;;;5.77;72.65;98166.28;5075077;28;19964;-91
2024/02/13 06:43:12;;;;;;;;;;;;;;;5.83;72.24;98171.66;5073604;28;19944;-91
2024/02/13 06:46:00;;;;;;;;;;;;;;;5.81;72.25;98165.75;5072760;28;19924;-91
2024/02/13 06:48:52;;;;;;;;;;;;;;;5.81;72.29;98174.63;5084741;28;19925;-92
2024/02/13 06:51:40;;;;;;;;;;;;;;;5.87;71.53;98181.63;5080468;28;19978;-91
2024/02/13 06:54:28;;;;;;;;;;;;;;;5.85;71.84;98182.97;5087530;28;19924;-91
2024/02/13 06:57:19;;;;;;;;;;;;;;;5.92;71.56;98183.53;5058796;28;19925;-91
2024/02/13 07:00:08;;;;;;;;;;;;;;;5.70;72.31;98192.72;5085092;28;20501;-85
2024/02/13 07:02:59;;;;;;;;;;;;;;;5.72;72.35;98195.13;5067540;28;19925;-85
2024/02/13 07:05:48;;;;;;;;;;;;;;;5.72;72.40;98192.44;5079320;28;19932;-86
2024/02/13 07:08:36;;;;;;;;;;;;;;;5.75;72.58;98197.28;5066726;28;19924;-85
2024/02/13 07:11:24;;;;;;;;;;;;;;;5.80;72.31;98208.03;5067380;28;19931;-85
2024/02/13 07:14:14;;;;;;;;;;;;;;;5.83;72.23;98201.31;5083689;28;20434;-85
2024/02/13 07:17:02;;;;;;;;;;;;;;;5.90;72.09;98205.31;5080984;28;20303;-85
2024/02/13 07:19:50;;;;;;;;;;;;;;;5.86;72.34;98219.63;5083243;28;19925;-85
2024/02/13 07:22:39;;;;;;;;;;;;;;;5.85;71.79;98220.72;5072352;28;20007;-85
2024/02/13 07:25:28;;;;;;;;;;;;;;;5.76;72.06;98218.59;5071801;28;19967;-85
2024/02/13 07:28:17;;;;;;;;;;;;;;;5.88;72.27;98229.06;5065617;28;20377;-85
2024/02/13 07:31:06;;;;;;;;;;;;;;;5.65;72.73;98221.56;5078726;28;20436;-85
2024/02/13 07:33:55;;;;;;;;;;;;;;;5.73;72.25;98231.78;5082037;28;19929;-85
2024/02/13 07:36:43;;;;;;;;;;;;;;;5.69;72.15;98226.13;5069102;28;20033;-85
2024/02/13 07:39:32;;;;;;;;;;;;;;;5.74;72.92;98228.81;5066782;28;19924;-85
2024/02/13 07:42:21;;;;;;;;;;;;;;;5.74;72.33;98219.91;5077825;28;19925;-84
2024/02/13 07:45:09;;;;;;;;;;;;;;;5.70;72.66;98232.31;5069693;28;20007;-83
2024/02/13 07:48:01;;;;;;;;;;;;;;;5.73;72.79;98240.69;5057796;28;20767;-85
2024/02/13 07:50:50;;;;;;;;;;;;;;;5.85;72.30;98234.19;5072849;28;19933;-85
2024/02/13 07:53:38;;;;;;;;;;;;;;;5.86;72.19;98241.19;5062396;28;20522;-85
2024/02/13 07:56:28;;;;;;;;;;;;;;;5.86;72.17;98233.09;5070621;28;19924;-85
2024/02/13 07:59:17;;;;;;;;;;;;;;;5.79;72.81;98239.59;5083665;28;20412;-84
2024/02/13 08:02:05;;;;;;;;;;;;;;;5.95;71.93;98228.81;5066108;28;20021;-85
2024/02/13 08:04:56;;;;;;;;;;;;;;;5.89;71.94;98232.56;5067167;28;19925;-85
2024/02/13 08:07:44;;;;;;;;;;;;;;;5.90;72.40;98250.38;5069583;28;19932;-84
2024/02/13 08:10:33;;;;;;;;;;;;;;;6.15;71.99;98241.44;5066993;28;19925;-83
2024/02/13 08:13:20;;;;;;;;;;;;;;;6.05;72.33;98250.38;5064174;28;19924;-84
2024/02/13 08:16:09;;;;;;;;;;;;;;;6.23;72.00;98248.97;5079435;28;19929;-84
2024/02/13 08:18:57;;;;;;;;;;;;;;;6.23;72.09;98251.66;5072845;28;19924;-84
2024/02/13 08:21:47;;;;;;;;;;;;;;;6.26;71.80;98238.44;5074081;28;19947;-84
2024/02/13 08:24:35;;;;;;;;;;;;;;;6.33;71.72;98250.81;5079761;28;19931;-85
2024/02/13 08:27:24;;;;;;;;;;;;;;;6.17;72.25;98240.06;5062951;28;19925;-84
2024/02/13 08:30:13;;;;;;;;;;;;;;;6.27;72.27;98240.06;5080006;28;19928;-84
2024/02/13 08:33:01;;;;;;;;;;;;;;;6.49;71.59;98241.59;5066401;28;19952;-84
2024/02/13 08:35:52;;;;;;;;;;;;;;;6.49;71.08;98252.38;5068700;28;19924;-84
2024/02/13 08:38:44;;;;;;;;;;;;;;;6.37;71.73;98255.41;5069954;28;20415;-83
2024/02/13 08:41:32;;;;;;;;;;;;;;;6.57;70.82;98246.41;5068434;28;19988;-82
2024/02/13 08:44:21;;;;;;;;;;;;;;;6.49;71.43;98252.38;5070150;28;19924;-83
2024/02/13 08:47:10;;;;;;;;;;;;;;;6.55;71.21;98240.47;5084586;28;20036;-84
2024/02/13 08:49:59;;;;;;;;;;;;;;;6.53;71.45;98243.47;5064534;28;19930;-83
2024/02/13 08:52:48;;;;;;;;;;;;;;;6.67;71.41;98242.88;5066961;28;20057;-83
2024/02/13 08:55:41;;;;;;;;;;;;;;;6.71;70.88;98246.63;5071545;28;20194;-83
2024/02/13 08:58:29;;;;;;;;;;;;;;;6.73;70.39;98247.97;5064667;28;20392;-81
2024/02/13 09:01:19;;;;;;;;;;;;;;;6.73;70.46;98253.38;5078494;28;20026;-82
2024/02/13 09:04:07;;;;;;;;;;;;;;;6.78;70.67;98269.53;5079745;28;20375;-83
2024/02/13 09:06:56;;;;;;;;;;;;;;;6.65;71.12;98270.13;5081287;28;19929;-83
2024/02/13 09:09:46;;;;;;;;;;;;;;;6.92;70.75;98277.03;5079979;28;19981;-83
2024/02/13 09:12:35;;;;;;;;;;;;;;;7.05;70.40;98274.53;5076055;28;19929;-83
2024/02/13 09:15:23;;;;;;;;;;;;;;;7.11;70.04;98275.31;5066001;28;19947;-83
2024/02/13 09:18:11;;;;;;;;;;;;;;;7.01;70.09;98267.25;5065819;28;20303;-83
2024/02/13 09:21:00;;;;;;;;;;;;;;;7.17;69.93;98276.88;5062991;28;19925;-83
2024/02/13 09:23:48;;;;;;;;;;;;;;;7.23;69.89;98272.25;5065876;28;19924;-83
2024/02/13 09:26:41;;;;;;;;;;;;;;;7.24;69.86;98269.25;5080910;28;20015;-83
2024/02/13 09:29:30;;;;;;;;;;;;;;;7.37;69.71;98267.03;5063626;28;19931;-83
2024/02/13 09:32:18;;;;;;;;;;;;;;;7.38;69.64;98272.16;5080227;28;19925;-83
2024/02/13 09:35:08;;;;;;;;;;;;;;;7.39;69.58;98281.06;5080630;28;20038;-83
2024/02/13 09:37:57;;;;;;;;;;;;;;;7.56;69.55;98276.91;5062295;28;20015;-83
2024/02/13 09:40:47;;;;;;;;;;;;;;;7.70;68.68;98277.03;5081109;28;19924;-83
2024/02/13 09:43:37;;;;;;;;;;;;;;;7.70;68.63;98271.63;5080219;28;19924;-82
2024/02/13 09:46:32;;;;;;;;;;;;;;;7.79;68.52;98271.84;5086420;28;19946;-82
2024/02/13 09:49:21;;;;;;;;;;;;;;;7.85;68.15;98276.91;5071775;28;20303;-82
2024/02/13 09:52:12;;;;;;;;;;;;;;;7.92;67.48;98286.59;5081861;28;20407;-82
2024/02/13 09:55:00;;;;;;;;;;;;;;;8.07;68.11;98289.16;5065789;28;20445;-83
2024/02/13 09:57:48;;;;;;;;;;;;;;;8.08;67.79;98293.47;5082355;28;19924;-83
2024/02/13 10:00:37;;;;;;;;;;;;;;;8.16;67.70;98290.16;5071821;28;20395;-83
2024/02/13 10:03:26;;;;;;;;;;;;;;;8.01;67.74;98304.63;5071703;28;19930;-82
2024/02/13 10:06:15;;;;;;;;;;;;;;;8.08;67.51;98298.88;5068215;28;19932;-83
2024/02/13 10:09:05;;;;;;;;;;;;;;;7.98;67.29;98305.19;5068340;28;19928;-83
2024/02/13 10:11:53;;;;;;;;;;;;;;;7.90;67.02;98297.69;5061035;28;19933;-83
2024/02/13 10:14:41;;;;;;;;;;;;;;;8.02;67.02;98298.13;5063530;28;19924;-83
2024/02/13 10:17:29;;;;;;;;;;;;;;;8.12;66.24;98289.09;5080994;28;19925;-83
2024/02/13 10:20:22;;;;;;;;;;;;;;;8.17;66.61;98288.25;5075233;28;19972;-83
2024/02/13 10:23:12;;;;;;;;;;;;;;;8.26;65.85;98290.06;5075694;28;19928;-83
2024/02/13 10:26:06;;;;;;;;;;;;;;;8.42;65.78;98287.22;5083099;28;19924;-83
2024/02/13 10:28:55;;;;;;;;;;;;;;;8.49;65.51;98291.19;5065671;28;19925;-83
2024/02/13 10:31:44;;;;;;;;;;;;;;;8.41;64.97;98291.78;5072364;28;20404;-82
2024/02/13 10:34:35;;;;;;;;;;;;;;;8.39;64.62;98289.38;5082378;28;20315;-83
2024/02/13 10:37:25;;;;;;;;;;;;;;;8.35;64.61;98301.03;5062464;28;19931;-82
2024/02/13 10:40:14;;;;;;;;;;;;;;;8.25;65.16;98299.25;5070266;28;19931;-74
2024/02/13 10:43:03;;;;;;;;;;;;;;;8.23;64.02;98295.22;5068146;28;19973;-74
2024/02/13 10:45:52;;;;;;;;;;;;;;;8.32;64.28;98302.44;5061956;28;19928;-75
2024/02/13 10:48:42;;;;;;;;;;;;;;;8.22;64.56;98299.81;5072833;28;20003;-75
2024/02/13 10:51:30;;;;;;;;;;;;;;;8.21;64.78;98289.31;5060889;28;20015;-74
2024/02/13 10:54:20;;;;;;;;;;;;;;;8.26;63.97;98290.06;5080715;28;20375;-74
2024/02/13 10:57:08;;;;;;;;;;;;;;;8.34;64.36;98292.13;5079279;28;19932;-75
2024/02/13 10:59:57;;;;;;;;;;;;;;;8.43;64.52;98292.34;5072712;28;19924;-75
2024/02/13 11:02:47;;;;;;;;;;;;;;;8.50;64.63;98297.41;5080299;28;19925;-74
2024/02/13 11:05:36;;;;;;;;;;;;;;;8.43;65.11;98291.53;5074207;28;20120;-75
2024/02/13 11:08:24;;;;;;;;;;;;;;;8.33;65.01;98289.69;5070212;28;19925;-74
2024/02/13 11:11:16;;;;;;;;;;;;;;;8.47;65.26;98289.84;5071818;28;19924;-74
2024/02/13 11:14:14;;;;;;;;;;;;;;;8.44;65.06;98291.22;5057534;28;20384;-75
2024/02/13 11:17:03;;;;;;;;;;;;;;;8.17;65.60;98289.06;5075087;28;20651;-74
2024/02/13 11:19:56;;;;;;;;;;;;;;;8.18;65.49;98287.97;5072741;28;20003;-75
2024/02/13 11:22:51;;;;;;;;;;;;;;;8.16;65.78;98289.34;5071972;28;19924;-74
2024/02/13 11:25:41;;;;;;;;;;;;;;;8.05;65.67;98286.75;5066660;28;19990;-75
2024/02/13 11:28:35;;;;;;;;;;;;;;;7.72;66.80;98288.38;5068541;28;20281;-75
2024/02/13 11:31:26;;;;;;;;;;;;;;;7.92;66.04;98294.69;5063543;28;19924;-75
2024/02/13 11:34:17;;;;;;;;;;;;;;;7.98;65.60;98294.38;5056001;28;19924;-75
2024/02/13 11:37:13;;;;;;;;;;;;;;;8.13;65.57;98285.31;5059888;28;19935;-74
2024/02/13 11:40:04;;;;;;;;;;;;;;;8.37;65.45;98286.16;5077514;28;19925;-74
2024/02/13 11:42:53;;;;;;;;;;;;;;;8.43;64.24;98294.25;5078497;28;19924;-74
2024/02/13 11:45:43;;;;;;;;;;;;;;;8.58;64.03;98291.38;5059490;28;20322;-75
2024/02/13 11:48:32;;;;;;;;;;;;;;;8.42;63.92;98287.22;5079382;28;19929;-76
2024/02/13 11:51:22;;;;;;;;;;;;;;;8.42;63.78;98292.63;5067686;28;19935;-75
2024/02/13 11:54:10;;;;;;;;;;;;;;;8.31;63.71;98290.00;5075017;28;19925;-75
2024/02/13 11:56:58;;;;;;;;;;;;;;;8.50;63.05;98290.06;5057699;28;20406;-75
2024/02/13 11:59:55;;;;;;;;;;;;;;;8.54;63.14;98288.41;5066337;28;20342;-74
2024/02/13 12:02:47;;;;;;;;;;;;;;;8.74;62.77;98286.56;5078646;28;19932;-75
2024/02/13 12:05:36;;;;;;;;;;;;;;;8.81;61.26;98282.41;5062027;28;19928;-75
2024/02/13 12:08:25;;;;;;;;;;;;;;;8.87;61.33;98285.84;5061536;28;19924;-74
2024/02/13 12:11:16;;;;;;;;;;;;;;;8.92;60.46;98278.44;5075500;28;19978;-75
2024/02/13 12:14:05;;;;;;;;;;;;;;;9.06;58.92;98272.34;5078267;28;20316;-75
2024/02/13 12:16:54;;;;;;;;;;;;;;;9.26;59.77;98273.91;5063467;28;19924;-75
2024/02/13 12:19:44;;;;;;;;;;;;;;;9.24;58.36;98270.72;5054476;28;20443;-75
2024/02/13 12:22:32;;;;;;;;;;;;;;;9.40;57.49;98264.75;5080680;28;19946;-74
2024/02/13 12:25:21;;;;;;;;;;;;;;;9.42;56.42;98264.47;5061902;28;20014;-74
2024/02/13 12:28:12;;;;;;;;;;;;;;;9.48;57.04;98257.03;5068777;28;20037;-75
2024/02/13 12:31:05;;;;;;;;;;;;;;;9.59;57.52;98272.88;5078962;28;20019;-75
2024/02/13 12:34:01;;;;;;;;;;;;;;;9.49;57.40;98261.38;5060122;28;19959;-75
2024/02/13 12:36:57;;;;;;;;;;;;;;;9.47;55.32;98263.56;5075895;28;19924;-74
2024/02/13 12:39:45;;;;;;;;;;;;;;;9.34;55.74;98265.13;5075433;28;19924;-74
2024/02/13 12:42:33;;;;;;;;;;;;;;;9.28;54.99;98260.91;5065665;28;19951;-75
2024/02/13 12:45:22;;;;;;;;;;;;;;;9.47;54.51;98253.53;5065117;28;19924;-74
2024/02/13 12:48:10;;;;;;;;;;;;;;;9.63;54.28;98256.81;5065024;28;20413;-74
2024/02/13 12:51:02;;;;;;;;;;;;;;;9.64;52.95;98263.84;5049547;28;19978;-75
2024/02/13 12:53:52;;;;;;;;;;;;;;;9.80;52.20;98267.09;5076839;28;19931;-74
2024/02/13 12:56:41;;;;;;;;;;;;;;;9.78;51.85;98264.69;5079654;28;19935;-74
2024/02/13 12:59:29;;;;;;;;;;;;;;;9.85;51.06;98265.09;5074437;28;19929;-83
2024/02/13 13:02:25;;;;;;;;;;;;;;;10.06;50.49;98262.03;5074008;28;19925;-82
2024/02/13 13:05:14;;;;;;;;;;;;;;;10.12;49.20;98253.53;5062394;28;20489;-82
2024/02/13 13:08:04;;;;;;;;;;;;;;;10.11;48.91;98251.88;5065981;28;19925;-82
2024/02/13 13:10:55;;;;;;;;;;;;;;;9.93;49.93;98250.06;5060912;28;19947;-82
2024/02/13 13:13:45;;;;;;;;;;;;;;;9.73;50.82;98248.50;5065895;28;19960;-82
2024/02/13 13:16:35;;;;;;;;;;;;;;;9.78;51.66;98253.03;5071136;28;20032;-83
2024/02/13 13:19:26;;;;;;;;;;;;;;;9.74;51.82;98252.81;5061692;28;20317;-82
2024/02/13 13:22:17;;;;;;;;;;;;;;;9.65;52.75;98246.47;5061851;28;19925;-82
2024/02/13 13:25:12;;;;;;;;;;;;;;;9.68;52.22;98251.28;5072738;28;19932;-83
2024/02/13 13:28:05;;;;;;;;;;;;;;;9.64;51.91;98250.28;5079533;28;20033;-83
2024/02/13 13:30:57;;;;;;;;;;;;;;;9.68;51.67;98248.59;5063745;28;19925;-82
2024/02/13 13:33:47;;;;;;;;;;;;;;;9.77;52.05;98252.22;5078508;28;20287;-82
2024/02/13 13:36:39;;;;;;;;;;;;;;;9.86;51.01;98255.88;5058836;28;19924;-82
2024/02/13 13:39:29;;;;;;;;;;;;;;;9.78;50.40;98259.28;5063267;28;20287;-82
2024/02/13 13:42:19;;;;;;;;;;;;;;;9.68;49.98;98259.44;5069335;28;20021;-82
2024/02/13 13:45:10;;;;;;;;;;;;;;;9.67;50.97;98255.13;5074816;28;19936;-83
2024/02/13 13:48:01;;;;;;;;;;;;;;;9.62;51.24;98257.91;5077560;28;19932;-83
2024/02/13 13:50:58;;;;;;;;;;;;;;;9.76;50.26;98255.25;5072661;28;19925;-82
2024/02/13 13:53:47;;;;;;;;;;;;;;;9.83;49.72;98256.47;5077838;28;19929;-82
2024/02/13 13:56:35;;;;;;;;;;;;;;;9.95;48.86;98264.94;5080227;28;20384;-83
2024/02/13 13:59:24;;;;;;;;;;;;;;;9.92;48.21;98262.84;5077982;28;19932;-81
2024/02/13 14:02:13;;;;;;;;;;;;;;;9.80;47.25;98265.22;5070521;28;19924;-82
2024/02/13 14:05:05;;;;;;;;;;;;;;;9.69;46.28;98259.16;5064104;28;20349;-83
2024/02/13 14:07:53;;;;;;;;;;;;;;;9.62;46.68;98256.00;5056470;28;19929;-83
2024/02/13 14:10:41;;;;;;;;;;;;;;;9.60;47.25;98263.63;5069305;28;20423;-83
2024/02/13 14:13:31;;;;;;;;;;;;;;;9.70;46.83;98262.69;5059851;28;20030;-83
2024/02/13 14:16:20;;;;;;;;;;;;;;;9.64;46.59;98264.66;5061432;28;19932;-83
2024/02/13 14:19:10;;;;;;;;;;;;;;;9.66;45.56;98264.38;5066868;28;19931;-83
2024/02/13 14:22:00;;;;;;;;;;;;;;;9.56;45.16;98272.66;5069787;28;20030;-83
2024/02/13 14:24:49;;;;;;;;;;;;;;;9.55;45.81;98266.44;5066898;28;19924;-82
2024/02/13 14:27:38;;;;;;;;;;;;;;;9.62;46.65;98280.41;5061367;28;20003;-83
2024/02/13 14:30:26;;;;;;;;;;;;;;;9.59;46.55;98266.66;5060402;28;19925;-83
2024/02/13 14:33:15;;;;;;;;;;;;;;;9.42;47.24;98270.69;5068580;28;20058;-83
2024/02/13 14:36:05;;;;;;;;;;;;;;;9.41;48.57;98277.22;5069510;28;19932;-83
2024/02/13 14:38:53;;;;;;;;;;;;;;;9.37;51.70;98275.38;5066934;28;19925;-83
2024/02/13 14:41:41;;;;;;;;;;;;;;;9.39;51.83;98284.03;5082891;28;19925;-83
2024/02/13 14:44:31;;;;;;;;;;;;;;;9.39;52.05;98278.63;5082019;28;19924;-81
2024/02/13 14:47:21;;;;;;;;;;;;;;;9.44;51.64;98273.13;5082260;28;20350;-84
2024/02/13 14:50:10;;;;;;;;;;;;;;;9.51;51.87;98270.03;5071092;28;19924;-83
2024/02/13 14:53:00;;;;;;;;;;;;;;;9.44;51.28;98273.94;5064688;28;19932;-83
2024/02/13 14:55:50;;;;;;;;;;;;;;;9.48;52.10;98270.59;5067228;28;19954;-84
2024/02/13 14:58:38;;;;;;;;;;;;;;;9.48;51.64;98271.44;5079260;28;19932;-83